Time;durP1;ratioP1;P1;durP2;ratioP2;P2;SDS_P1;SDS_P2;PMS_P1;PMS_P2;Temp;Humidity;BMP_temperature;BMP_pressure;BME280_temperature;BME280_humidity;BME280_pressure;Samples;Min_cycle;Max_cycle;Signal;HPM_P1;HPM_P2
2023/12/06 00:01:30;;;;;;;3.60;1.60;;;;;;;18.88;48.82;99722.31;4988655;28;20199;-72
2023/12/06 00:03:55;;;;;;;5.83;1.10;;;;;;;18.95;48.38;99722.34;4975662;28;20602;-72
2023/12/06 00:06:21;;;;;;;4.03;1.20;;;;;;;18.94;48.57;99726.44;4988493;28;20177;-72
2023/12/06 00:08:48;;;;;;;3.50;1.80;;;;;;;18.95;49.15;99718.66;4960604;28;20188;-72
2023/12/06 00:11:14;;;;;;;5.50;1.87;;;;;;;18.88;49.06;99710.88;4998016;28;20244;-73
2023/12/06 00:13:39;;;;;;;6.50;1.60;;;;;;;18.59;49.67;99726.16;4986183;28;20435;-73
2023/12/06 00:16:05;;;;;;;3.80;1.40;;;;;;;18.49;49.96;99714.63;4988062;28;20214;-77
2023/12/06 00:18:31;;;;;;;5.20;1.67;;;;;;;18.43;49.68;99719.91;4975486;28;20207;-75
2023/12/06 00:20:56;;;;;;;3.50;1.23;;;;;;;18.35;49.44;99720.19;5003631;28;20436;-77
2023/12/06 00:23:22;;;;;;;6.70;1.20;;;;;;;18.37;49.74;99727.16;4988493;28;20182;-75
2023/12/06 00:25:47;;;;;;;4.87;1.30;;;;;;;18.36;50.17;99722.66;4972812;28;20193;-75
2023/12/06 00:28:12;;;;;;;4.03;1.50;;;;;;;18.37;50.21;99730.03;4972704;28;20181;-75
2023/12/06 00:30:38;;;;;;;4.63;1.60;;;;;;;18.39;50.11;99719.03;4991259;28;20201;-75
2023/12/06 00:33:04;;;;;;;4.53;1.50;;;;;;;18.40;50.36;99737.81;4988739;28;20196;-76
2023/12/06 00:35:30;;;;;;;5.23;1.40;;;;;;;18.38;50.12;99725.97;4964533;28;20276;-75
2023/12/06 00:37:55;;;;;;;6.23;1.20;;;;;;;18.36;50.56;99730.44;4962261;28;20433;-75
2023/12/06 00:40:20;;;;;;;3.00;1.40;;;;;;;18.31;51.03;99719.34;4974640;28;20192;-76
2023/12/06 00:42:46;;;;;;;2.33;1.23;;;;;;;18.32;50.30;99735.25;4991387;28;20192;-76
2023/12/06 00:45:11;;;;;;;3.57;1.30;;;;;;;18.30;50.61;99729.09;4990418;28;20178;-76
2023/12/06 00:47:37;;;;;;;4.70;1.17;;;;;;;18.29;50.57;99727.47;4993385;28;20188;-76
2023/12/06 00:50:04;;;;;;;10.83;1.40;;;;;;;18.29;50.98;99734.00;5007402;28;20193;-75
2023/12/06 00:52:29;;;;;;;7.10;1.90;;;;;;;18.34;50.69;99730.00;5010784;28;20222;-76
2023/12/06 00:54:55;;;;;;;2.93;1.00;;;;;;;18.27;51.13;99735.63;4975946;28;20468;-76
2023/12/06 00:57:20;;;;;;;4.23;1.40;;;;;;;18.27;51.46;99736.41;4991968;28;20231;-75
2023/12/06 00:59:46;;;;;;;5.20;1.10;;;;;;;18.28;51.25;99738.09;4979356;28;20178;-75
2023/12/06 01:02:11;;;;;;;5.67;1.50;;;;;;;18.28;51.09;99746.66;4970182;28;20203;-75
2023/12/06 01:04:37;;;;;;;4.03;1.30;;;;;;;18.29;51.35;99731.16;4991641;28;20189;-76
2023/12/06 01:07:03;;;;;;;4.27;1.27;;;;;;;18.24;51.47;99748.66;4972046;28;20204;-75
2023/12/06 01:09:28;;;;;;;2.80;1.10;;;;;;;18.25;51.08;99746.59;4961651;28;20527;-75
2023/12/06 01:11:53;;;;;;;6.97;1.63;;;;;;;18.26;51.35;99751.13;4973674;28;20204;-76
2023/12/06 01:14:19;;;;;;;2.20;1.03;;;;;;;18.28;51.15;99752.38;4988362;28;20196;-76
2023/12/06 01:16:44;;;;;;;2.83;1.00;;;;;;;18.27;51.41;99753.56;4975579;28;20261;-76
2023/12/06 01:19:10;;;;;;;3.37;1.00;;;;;;;18.24;51.96;99753.53;4990648;28;20181;-76
2023/12/06 01:21:35;;;;;;;3.40;1.20;;;;;;;18.21;51.56;99749.41;4972207;28;20240;-76
2023/12/06 01:24:01;;;;;;;4.33;1.20;;;;;;;18.22;51.63;99758.81;4962697;28;20624;-75
2023/12/06 01:26:26;;;;;;;4.10;1.10;;;;;;;18.23;51.44;99752.72;4979258;28;20184;-75
2023/12/06 01:28:52;;;;;;;3.13;1.30;;;;;;;18.29;51.23;99756.88;4977198;28;20177;-74
2023/12/06 01:31:17;;;;;;;2.23;0.87;;;;;;;18.26;51.72;99762.56;4973316;28;20189;-75
2023/12/06 01:33:42;;;;;;;2.80;1.13;;;;;;;18.27;51.71;99762.13;4970948;28;20238;-74
2023/12/06 01:36:08;;;;;;;2.23;1.20;;;;;;;18.27;51.21;99770.72;4975919;28;20570;-74
2023/12/06 01:38:34;;;;;;;2.70;1.10;;;;;;;18.26;51.73;99777.66;4968705;28;20194;-74
2023/12/06 01:40:59;;;;;;;2.10;1.20;;;;;;;18.26;51.56;99768.25;4988805;28;20181;-75
2023/12/06 01:43:24;;;;;;;2.03;1.00;;;;;;;18.24;51.54;99768.66;4984330;28;20558;-74
2023/12/06 01:45:50;;;;;;;2.23;1.20;;;;;;;18.24;52.15;99770.69;4976974;28;20205;-75
2023/12/06 01:48:16;;;;;;;4.10;1.20;;;;;;;18.26;51.80;99782.56;4987885;28;20555;-75
2023/12/06 01:50:42;;;;;;;2.40;0.93;;;;;;;18.26;51.76;99776.84;4980206;28;20210;-74
2023/12/06 01:53:08;;;;;;;2.50;1.00;;;;;;;18.26;52.00;99783.34;5003562;28;20447;-74
2023/12/06 01:55:33;;;;;;;4.73;1.37;;;;;;;18.21;51.75;99783.72;4985931;28;20207;-74
2023/12/06 01:57:59;;;;;;;2.70;1.30;;;;;;;18.21;52.02;99780.06;4968448;28;20182;-75
2023/12/06 02:00:36;;;;;;;3.70;1.23;;;;;;;18.20;52.13;99782.06;4985056;28;20189;-74
2023/12/06 02:03:02;;;;;;;5.87;1.10;;;;;;;18.19;52.58;99785.31;4963041;28;20186;-74
2023/12/06 02:05:27;;;;;;;1.93;1.00;;;;;;;18.21;52.00;99786.56;4991400;28;20425;-74
2023/12/06 02:07:53;;;;;;;2.10;0.80;;;;;;;18.18;51.92;99801.66;4985758;28;20189;-74
2023/12/06 02:10:19;;;;;;;2.10;0.90;;;;;;;18.17;52.48;99791.41;4981007;28;20177;-74
2023/12/06 02:12:44;;;;;;;2.90;1.10;;;;;;;18.16;52.05;99797.53;4989062;28;20182;-75
2023/12/06 02:15:11;;;;;;;3.17;1.27;;;;;;;18.18;52.41;99795.09;4970764;28;20871;-75
2023/12/06 02:17:36;;;;;;;1.70;1.00;;;;;;;18.14;52.23;99806.50;4983125;28;20718;-74
2023/12/06 02:20:02;;;;;;;3.77;1.00;;;;;;;18.18;52.26;99795.94;4994908;28;20444;-74
2023/12/06 02:22:28;;;;;;;2.13;0.83;;;;;;;18.13;52.36;99799.16;4977720;28;20244;-75
2023/12/06 02:24:56;;;;;;;2.93;1.17;;;;;;;18.16;52.08;99795.50;5003714;28;20792;-75
2023/12/06 02:27:21;;;;;;;2.33;1.00;;;;;;;18.11;52.46;99792.19;4972519;28;20649;-74
2023/12/06 02:29:47;;;;;;;3.27;1.20;;;;;;;18.12;52.48;99797.47;4979743;28;20441;-75
2023/12/06 02:32:12;;;;;;;2.30;1.33;;;;;;;18.09;52.64;99794.59;4979321;28;21468;-74
2023/12/06 02:34:38;;;;;;;2.30;0.80;;;;;;;18.13;51.87;99795.44;4967335;28;20265;-75
2023/12/06 02:37:04;;;;;;;2.77;1.20;;;;;;;18.14;52.22;99800.78;4973581;28;20191;-72
2023/12/06 02:39:32;;;;;;;2.17;1.00;;;;;;;18.13;52.60;99798.31;4987153;28;20190;-72
2023/12/06 02:41:57;;;;;;;2.50;1.00;;;;;;;18.12;52.70;99799.53;4978107;28;20426;-73
2023/12/06 02:44:23;;;;;;;2.90;0.90;;;;;;;18.16;52.47;99798.34;4970806;28;20441;-72
2023/12/06 02:46:52;;;;;;;4.23;1.07;;;;;;;18.17;52.16;99799.97;4985144;28;20178;-73
2023/12/06 02:49:17;;;;;;;3.00;0.97;;;;;;;18.17;52.21;99797.13;4974361;28;20719;-72
2023/12/06 02:51:42;;;;;;;2.00;0.83;;;;;;;18.14;52.22;99800.78;4989613;28;20440;-73
2023/12/06 02:54:08;;;;;;;7.07;1.20;;;;;;;18.16;52.33;99797.53;4975076;28;20190;-73
2023/12/06 02:56:33;;;;;;;2.80;1.00;;;;;;;18.15;52.13;99805.28;4983398;28;20908;-73
2023/12/06 02:58:59;;;;;;;2.97;1.20;;;;;;;18.14;52.76;99811.38;4974655;28;20236;-73
2023/12/06 03:01:24;;;;;;;2.47;0.97;;;;;;;18.14;52.63;99806.50;4985892;28;20178;-73
2023/12/06 03:03:50;;;;;;;2.07;0.80;;;;;;;18.12;52.52;99816.66;4981466;28;20193;-72
2023/12/06 03:06:15;;;;;;;2.60;1.40;;;;;;;18.14;52.55;99805.66;5005642;28;20201;-73
2023/12/06 03:08:40;;;;;;;2.03;0.90;;;;;;;18.11;52.52;99804.41;4989498;28;20193;-73
2023/12/06 03:11:06;;;;;;;2.73;0.93;;;;;;;18.14;52.35;99806.50;4989158;28;20197;-72
2023/12/06 03:13:31;;;;;;;3.53;1.17;;;;;;;18.11;52.69;99815.84;4987034;28;20193;-73
2023/12/06 03:15:57;;;;;;;2.00;1.07;;;;;;;18.11;52.97;99815.84;5005566;28;20225;-73
2023/12/06 03:18:22;;;;;;;4.23;0.87;;;;;;;18.12;52.63;99819.53;5001844;28;20180;-72
2023/12/06 03:20:47;;;;;;;2.83;1.00;;;;;;;18.13;51.87;99813.44;5009639;28;20157;-72
2023/12/06 03:23:13;;;;;;;2.30;1.00;;;;;;;18.11;52.62;99818.69;4988388;28;20209;-72
2023/12/06 03:25:38;;;;;;;2.10;0.90;;;;;;;18.09;52.43;99818.28;4987685;28;20528;-72
2023/12/06 03:28:04;;;;;;;1.97;0.87;;;;;;;18.06;52.96;99819.03;4991116;28;21044;-73
2023/12/06 03:30:29;;;;;;;2.13;0.97;;;;;;;18.09;52.82;99818.28;4990502;28;20166;-73
2023/12/06 03:32:55;;;;;;;2.40;0.90;;;;;;;18.09;53.04;99828.84;5011594;28;20194;-72
2023/12/06 03:35:20;;;;;;;2.10;0.90;;;;;;;18.05;52.84;99819.41;4961147;28;20244;-73
2023/12/06 03:37:45;;;;;;;2.07;1.10;;;;;;;18.08;52.79;99835.78;4973289;28;20197;-73
2023/12/06 03:40:11;;;;;;;2.50;0.90;;;;;;;18.06;52.66;99826.81;4997243;28;20493;-72
2023/12/06 03:42:37;;;;;;;2.20;0.90;;;;;;;18.05;52.79;99834.53;4988005;28;20193;-73
2023/12/06 03:45:03;;;;;;;3.40;1.20;;;;;;;18.07;52.64;99822.72;4990403;28;20496;-72
2023/12/06 03:47:28;;;;;;;1.67;0.90;;;;;;;18.05;53.43;99830.84;4954691;28;20187;-74
2023/12/06 03:49:54;;;;;;;2.70;0.90;;;;;;;18.04;52.68;99832.91;4959632;28;20185;-75
2023/12/06 03:52:19;;;;;;;3.63;0.80;;;;;;;18.06;52.82;99833.31;4972397;28;20194;-74
2023/12/06 03:54:44;;;;;;;3.20;0.83;;;;;;;18.03;52.85;99834.13;5006100;28;20202;-75
2023/12/06 03:57:10;;;;;;;2.67;0.80;;;;;;;18.02;53.07;99826.72;4988578;28;20189;-74
2023/12/06 03:59:35;;;;;;;1.90;1.00;;;;;;;18.04;53.24;99830.03;4970730;28;20634;-74
2023/12/06 04:02:01;;;;;;;2.00;0.97;;;;;;;18.09;52.69;99831.72;5000375;28;20174;-74
2023/12/06 04:04:26;;;;;;;1.90;0.80;;;;;;;18.08;52.70;99832.94;5005616;28;20193;-74
2023/12/06 04:06:52;;;;;;;1.73;0.90;;;;;;;18.08;52.71;99838.66;4971480;28;20541;-75
2023/12/06 04:09:17;;;;;;;1.93;1.00;;;;;;;18.08;52.81;99842.34;4988143;28;20181;-74
2023/12/06 04:11:43;;;;;;;1.50;0.80;;;;;;;18.08;53.18;99844.38;4989530;28;20182;-75
2023/12/06 04:14:09;;;;;;;3.00;0.93;;;;;;;18.12;53.00;99842.38;4973646;28;20678;-75
2023/12/06 04:16:36;;;;;;;1.97;0.80;;;;;;;18.12;52.48;99846.03;4972878;28;20437;-74
2023/12/06 04:19:02;;;;;;;1.70;0.80;;;;;;;18.10;52.87;99844.78;4985944;28;20201;-75
2023/12/06 04:21:27;;;;;;;3.50;0.93;;;;;;;18.06;52.87;99839.03;4972916;28;20432;-74
2023/12/06 04:23:53;;;;;;;2.20;0.90;;;;;;;18.06;52.91;99836.19;4973107;28;20178;-74
2023/12/06 04:26:18;;;;;;;1.60;0.70;;;;;;;18.05;53.12;99843.09;5005313;28;20236;-74
2023/12/06 04:28:44;;;;;;;2.77;1.23;;;;;;;18.10;52.51;99850.50;4973166;28;20273;-75
2023/12/06 04:31:09;;;;;;;1.70;0.70;;;;;;;18.07;52.75;99874.16;4972059;28;20288;-75
2023/12/06 04:33:34;;;;;;;2.70;0.80;;;;;;;18.08;52.85;99858.66;4992104;28;20245;-75
2023/12/06 04:36:00;;;;;;;2.10;0.83;;;;;;;18.09;52.81;99866.00;4961602;28;20236;-74
2023/12/06 04:38:25;;;;;;;2.20;0.80;;;;;;;18.09;52.59;99866.84;4974714;28;20241;-74
2023/12/06 04:40:51;;;;;;;2.90;1.00;;;;;;;18.07;52.87;99866.38;4998919;28;20193;-75
2023/12/06 04:43:16;;;;;;;1.43;0.70;;;;;;;18.08;52.35;99868.06;4989339;28;20173;-75
2023/12/06 04:45:42;;;;;;;2.23;1.00;;;;;;;18.08;52.64;99864.34;4982163;28;20182;-75
2023/12/06 04:48:07;;;;;;;2.30;0.90;;;;;;;18.04;52.40;99870.03;4963259;28;20189;-74
2023/12/06 04:50:32;;;;;;;2.37;1.27;;;;;;;18.07;52.70;99866.38;4993073;28;20189;-75
2023/12/06 04:52:58;;;;;;;1.87;0.90;;;;;;;18.06;52.53;99867.59;4989363;28;20645;-75
2023/12/06 04:55:24;;;;;;;3.10;0.87;;;;;;;18.04;52.94;99861.47;4987665;28;20728;-72
2023/12/06 04:57:49;;;;;;;1.70;1.00;;;;;;;18.04;52.95;99872.88;4979320;28;20641;-72
2023/12/06 05:00:15;;;;;;;1.60;0.70;;;;;;;18.03;52.72;99859.00;4972272;28;20228;-73
2023/12/06 05:02:41;;;;;;;1.50;0.70;;;;;;;18.02;52.91;99857.34;4979845;28;20652;-72
2023/12/06 05:05:06;;;;;;;2.73;1.00;;;;;;;18.03;53.21;99862.69;4988371;28;20433;-72
2023/12/06 05:07:32;;;;;;;1.43;0.63;;;;;;;18.01;52.61;99867.94;4986965;28;20228;-73
2023/12/06 05:09:57;;;;;;;3.07;1.03;;;;;;;18.00;53.09;99869.16;4980523;28;20537;-73
2023/12/06 05:12:23;;;;;;;1.97;0.87;;;;;;;18.03;53.04;99871.25;4986741;28;20182;-72
2023/12/06 05:14:48;;;;;;;1.53;0.90;;;;;;;18.08;52.96;99876.63;4990428;28;20271;-72
2023/12/06 05:17:13;;;;;;;1.40;0.70;;;;;;;18.06;52.72;99876.16;5007132;28;20173;-73
2023/12/06 05:19:39;;;;;;;1.83;0.83;;;;;;;18.07;52.76;99882.72;4988465;28;20244;-73
2023/12/06 05:22:04;;;;;;;1.80;0.87;;;;;;;18.08;52.71;99882.34;4971597;28;21009;-73
2023/12/06 05:24:30;;;;;;;2.13;0.87;;;;;;;18.09;52.61;99878.25;4971373;28;20808;-73
2023/12/06 05:26:55;;;;;;;1.63;0.70;;;;;;;18.07;52.82;99882.72;4989203;28;20174;-72
2023/12/06 05:29:21;;;;;;;2.03;1.00;;;;;;;18.10;52.69;99894.19;4989393;28;20186;-73
2023/12/06 05:31:46;;;;;;;1.90;0.90;;;;;;;18.10;52.46;99890.50;4986625;28;20197;-73
2023/12/06 05:34:12;;;;;;;1.80;0.97;;;;;;;18.12;52.33;99897.47;4981507;28;20233;-72
2023/12/06 05:36:37;;;;;;;1.40;0.70;;;;;;;18.12;53.17;99900.31;4975204;28;20193;-72
2023/12/06 05:39:05;;;;;;;1.70;0.80;;;;;;;18.11;52.72;99898.69;4971378;28;20178;-73
2023/12/06 05:41:31;;;;;;;2.40;0.77;;;;;;;18.09;53.01;99900.28;4987518;28;20216;-73
2023/12/06 05:43:57;;;;;;;2.23;0.97;;;;;;;18.12;52.69;99906.03;4971959;28;20484;-73
2023/12/06 05:46:22;;;;;;;1.60;0.80;;;;;;;18.10;52.81;99907.63;4959521;28;20417;-72
2023/12/06 05:48:47;;;;;;;3.60;0.90;;;;;;;18.11;52.84;99903.59;4970950;28;20555;-72
2023/12/06 05:51:13;;;;;;;1.63;0.70;;;;;;;18.13;52.60;99912.59;4985907;28;20660;-73
2023/12/06 05:53:38;;;;;;;1.50;0.80;;;;;;;18.13;52.27;99913.41;4975930;28;20174;-72
2023/12/06 05:56:05;;;;;;;3.53;0.90;;;;;;;18.11;52.45;99915.81;4983017;28;20235;-73
2023/12/06 05:58:30;;;;;;;1.63;0.70;;;;;;;18.11;52.66;99924.38;5004825;28;20182;-73
2023/12/06 06:00:56;;;;;;;1.87;0.83;;;;;;;18.11;52.68;99927.25;4983076;28;20965;-73
2023/12/06 06:03:21;;;;;;;1.47;0.70;;;;;;;18.11;52.52;99932.97;4984222;28;20197;-73
2023/12/06 06:05:46;;;;;;;2.00;0.70;;;;;;;18.08;52.74;99936.59;4986740;28;20166;-72
2023/12/06 06:08:12;;;;;;;2.00;0.90;;;;;;;18.08;52.85;99945.19;4971395;28;20231;-72
2023/12/06 06:10:37;;;;;;;1.60;0.80;;;;;;;18.08;52.71;99950.06;4970425;28;20212;-72
2023/12/06 06:13:03;;;;;;;1.70;0.83;;;;;;;18.07;52.65;99949.22;4968747;28;20535;-72
2023/12/06 06:15:28;;;;;;;2.50;0.93;;;;;;;18.09;52.85;99945.97;5003589;28;20546;-72
2023/12/06 06:17:54;;;;;;;1.77;0.83;;;;;;;18.07;53.15;99946.38;4979419;28;20658;-72
2023/12/06 06:20:19;;;;;;;1.60;0.70;;;;;;;18.07;52.96;99954.13;4974997;28;20205;-72
2023/12/06 06:22:45;;;;;;;2.07;0.90;;;;;;;18.06;53.22;99958.19;4983698;28;20277;-72
2023/12/06 06:25:10;;;;;;;2.43;1.20;;;;;;;18.08;52.84;99967.19;4975145;28;20200;-72
2023/12/06 06:27:36;;;;;;;2.13;1.00;;;;;;;18.06;53.03;99970.44;4970153;28;20209;-72
2023/12/06 06:30:02;;;;;;;1.97;0.97;;;;;;;18.06;53.18;99979.00;4967638;28;20182;-72
2023/12/06 06:32:28;;;;;;;1.80;0.80;;;;;;;18.08;52.81;99990.88;4948767;28;20213;-72
2023/12/06 06:34:53;;;;;;;2.20;0.70;;;;;;;18.08;52.56;99992.91;4940094;28;1148574;-73
2023/12/06 06:37:19;;;;;;;2.70;1.70;;;;;;;17.81;52.24;99994.13;5000542;28;20205;-73
2023/12/06 06:39:44;;;;;;;4.90;3.10;;;;;;;17.50;47.21;99994.41;4974352;28;20288;-72
2023/12/06 06:42:10;;;;;;;13.70;5.63;;;;;;;17.66;53.33;99998.75;4990810;28;20185;-73
2023/12/06 06:44:35;;;;;;;10.07;4.33;;;;;;;18.03;50.00;99994.06;4975303;28;20181;-73
2023/12/06 06:47:01;;;;;;;7.30;4.33;;;;;;;18.37;50.68;99992.13;4973251;28;20201;-74
2023/12/06 06:49:26;;;;;;;5.80;3.93;;;;;;;18.71;50.13;99997.50;4995666;28;20181;-72
2023/12/06 06:51:52;;;;;;;5.70;3.60;;;;;;;18.64;49.08;99997.41;4981254;28;20248;-72
2023/12/06 06:54:17;;;;;;;5.87;3.27;;;;;;;18.96;48.00;99997.81;4991095;28;20232;-72
2023/12/06 06:56:43;;;;;;;3.30;2.50;;;;;;;19.09;47.80;100005.72;4988275;28;20721;-72
2023/12/06 06:59:08;;;;;;;4.70;2.73;;;;;;;19.19;47.54;100019.31;4983247;28;20245;-72
2023/12/06 07:01:34;;;;;;;4.53;2.43;;;;;;;19.24;47.29;100015.31;4959567;28;20189;-72
2023/12/06 07:03:59;;;;;;;4.10;2.70;;;;;;;19.30;46.75;100014.56;4964418;28;20557;-73
2023/12/06 07:06:25;;;;;;;4.13;2.47;;;;;;;19.32;46.76;100014.19;4990094;28;20174;-72
2023/12/06 07:08:50;;;;;;;4.70;2.57;;;;;;;19.33;47.05;100016.66;4987561;28;20256;-72
2023/12/06 07:11:16;;;;;;;3.13;2.07;;;;;;;19.15;46.64;100020.47;4973446;28;20197;-72
2023/12/06 07:13:41;;;;;;;7.60;2.60;;;;;;;19.02;47.12;100016.25;4999150;28;20180;-71
2023/12/06 07:16:07;;;;;;;5.53;2.57;;;;;;;19.17;47.79;100033.19;4973858;28;20205;-75
2023/12/06 07:18:32;;;;;;;7.70;2.50;;;;;;;19.26;47.74;100039.47;4986968;28;20193;-75
2023/12/06 07:20:59;;;;;;;3.60;2.17;;;;;;;19.33;47.92;100048.13;4970167;28;20198;-75
2023/12/06 07:23:24;;;;;;;3.23;1.80;;;;;;;19.29;48.18;100047.28;4972043;28;20186;-74
2023/12/06 07:25:50;;;;;;;3.03;1.80;;;;;;;18.99;48.67;100046.47;4990932;28;20420;-74
2023/12/06 07:28:16;;;;;;;3.90;2.00;;;;;;;19.04;49.66;100051.84;4992954;28;20645;-74
2023/12/06 07:30:41;;;;;;;8.30;2.03;;;;;;;19.01;49.68;100052.63;4967783;28;20562;-74
2023/12/06 07:33:10;;;;;;;4.27;2.43;;;;;;;19.11;49.20;100056.84;4970312;28;20187;-74
2023/12/06 07:35:35;;;;;;;4.10;2.10;;;;;;;19.12;50.09;100053.56;4992149;28;20248;-74
2023/12/06 07:38:01;;;;;;;4.57;1.87;;;;;;;19.00;49.71;100067.31;4991553;28;21245;-73
2023/12/06 07:40:26;;;;;;;9.13;2.27;;;;;;;18.97;50.40;100065.25;4989842;28;20197;-74
2023/12/06 07:42:52;;;;;;;9.90;2.50;;;;;;;18.81;51.38;100076.06;4999569;28;20226;-75
2023/12/06 07:45:17;;;;;;;7.83;2.17;;;;;;;18.94;51.54;100086.88;4982559;28;20182;-75
2023/12/06 07:47:43;;;;;;;3.90;1.60;;;;;;;18.96;51.52;100078.72;4979412;28;20252;-73
2023/12/06 07:50:09;;;;;;;6.50;1.70;;;;;;;18.82;52.58;100083.44;4985981;28;20190;-73
2023/12/06 07:52:34;;;;;;;11.90;2.60;;;;;;;18.73;51.22;100085.75;4967684;28;20190;-71
2023/12/06 07:55:00;;;;;;;7.43;2.57;;;;;;;18.69;50.83;100085.72;4985264;28;20461;-73
2023/12/06 07:57:28;;;;;;;4.30;1.87;;;;;;;18.63;50.24;100093.00;4984685;28;20193;-73
2023/12/06 07:59:55;;;;;;;4.37;1.70;;;;;;;18.56;50.26;100098.59;4998332;28;20219;-74
2023/12/06 08:02:21;;;;;;;11.43;2.30;;;;;;;18.45;50.35;100105.34;4987075;28;21382;-73
2023/12/06 08:04:46;;;;;;;6.40;2.20;;;;;;;18.45;50.29;100111.91;4999439;28;20528;-73
2023/12/06 08:07:12;;;;;;;6.10;2.00;;;;;;;18.44;50.03;100104.53;4989239;28;20189;-78
2023/12/06 08:09:39;;;;;;;4.73;1.60;;;;;;;18.39;50.49;100110.59;4990747;28;20178;-79
2023/12/06 08:12:06;;;;;;;8.63;2.20;;;;;;;18.39;50.75;100116.31;4982236;28;20613;-77
2023/12/06 08:14:31;;;;;;;3.60;1.73;;;;;;;18.41;51.08;100113.88;4964157;28;20473;-74
2023/12/06 08:16:57;;;;;;;4.37;1.73;;;;;;;18.49;51.01;100118.50;4982056;28;20428;-74
2023/12/06 08:19:22;;;;;;;9.80;2.90;;;;;;;18.49;52.81;100112.78;4969706;28;20175;-74
2023/12/06 08:21:48;;;;;;;14.00;3.07;;;;;;;18.48;53.77;100116.03;4986405;28;20541;-74
2023/12/06 08:24:14;;;;;;;26.23;1.90;;;;;;;18.49;54.04;100121.34;4971852;28;20280;-74
2023/12/06 08:26:39;;;;;;;16.90;2.43;;;;;;;18.45;54.02;100122.50;4964261;28;20433;-72
2023/12/06 08:29:05;;;;;;;14.73;2.60;;;;;;;18.40;54.63;100128.53;4953770;28;20278;-72
2023/12/06 08:31:31;;;;;;;7.03;2.17;;;;;;;18.42;54.43;100126.94;4965716;28;20279;-72
2023/12/06 08:33:58;;;;;;;6.03;2.07;;;;;;;18.45;54.61;100126.19;4965468;28;20265;-72
2023/12/06 08:36:24;;;;;;;7.00;1.93;;;;;;;18.47;54.58;100132.34;4951192;28;20236;-72
2023/12/06 08:38:50;;;;;;;6.13;2.07;;;;;;;18.52;54.35;100129.16;4870484;28;20881;-72
2023/12/06 08:41:15;;;;;;;7.60;2.33;;;;;;;18.47;54.52;100135.19;4875924;28;21336;-72
2023/12/06 08:43:41;;;;;;;8.67;2.10;;;;;;;18.49;54.11;100132.78;4951486;28;20272;-72
2023/12/06 08:46:07;;;;;;;4.90;1.90;;;;;;;18.46;54.24;100130.69;4953146;28;20174;-72
2023/12/06 08:48:33;;;;;;;9.97;2.00;;;;;;;18.49;54.45;100144.22;4953664;28;20162;-72
2023/12/06 08:50:59;;;;;;;8.10;1.60;;;;;;;18.47;54.11;100135.19;4950408;28;20564;-72
2023/12/06 08:53:24;;;;;;;6.03;1.80;;;;;;;18.45;54.06;100137.63;4933862;29;20261;-72
2023/12/06 08:55:50;;;;;;;7.40;2.10;;;;;;;18.46;54.52;100144.97;4918792;29;21191;-72
2023/12/06 08:58:17;;;;;;;10.03;1.73;;;;;;;18.44;54.61;100147.41;4947634;28;20523;-72
2023/12/06 09:00:42;;;;;;;8.03;2.60;;;;;;;18.45;53.97;100149.06;4934690;28;20282;-72
2023/12/06 09:03:08;;;;;;;8.70;2.27;;;;;;;18.44;54.53;100150.28;4967979;28;20541;-72
2023/12/06 09:05:34;;;;;;;5.43;1.50;;;;;;;18.44;54.01;100156.00;4952058;28;20566;-72
2023/12/06 09:08:00;;;;;;;4.53;1.60;;;;;;;18.45;54.26;100166.22;4966630;28;20569;-72
2023/12/06 09:10:26;;;;;;;7.13;1.80;;;;;;;18.44;54.29;100164.56;4935557;28;20681;-72
2023/12/06 09:12:52;;;;;;;6.60;1.77;;;;;;;18.50;54.08;100157.31;4935664;28;20469;-72
2023/12/06 09:15:17;;;;;;;6.57;1.70;;;;;;;18.45;54.33;100166.22;4963823;28;20202;-72
2023/12/06 09:17:43;;;;;;;7.80;1.50;;;;;;;18.45;54.15;100166.22;4929025;28;20246;-72
2023/12/06 09:20:09;;;;;;;8.33;1.73;;;;;;;18.49;53.72;100171.97;4952187;28;20190;-72
2023/12/06 09:22:35;;;;;;;10.30;1.87;;;;;;;18.49;54.13;100167.09;4951938;28;20190;-72
2023/12/06 09:25:04;;;;;;;9.50;2.10;;;;;;;18.52;54.28;100168.38;4953251;28;20441;-72
2023/12/06 09:27:33;;;;;;;4.67;1.77;;;;;;;18.46;54.38;100176.44;4938048;28;20296;-72
2023/12/06 09:29:58;;;;;;;10.53;1.67;;;;;;;18.47;54.22;100175.22;4935480;28;20429;-72
2023/12/06 09:32:24;;;;;;;10.10;2.40;;;;;;;18.51;53.99;100186.72;4969253;28;20926;-71
2023/12/06 09:34:50;;;;;;;7.93;1.50;;;;;;;18.46;54.57;100190.72;4936093;28;20226;-72
2023/12/06 09:37:15;;;;;;;4.17;1.50;;;;;;;18.48;54.41;100193.19;4936491;28;20229;-72
2023/12/06 09:39:41;;;;;;;8.20;1.80;;;;;;;18.47;54.18;100198.09;4978430;28;20431;-72
2023/12/06 09:42:07;;;;;;;3.57;1.30;;;;;;;18.49;54.12;100198.53;4986175;28;20198;-72
2023/12/06 09:44:33;;;;;;;2.63;1.50;;;;;;;18.47;54.21;100205.84;4987680;28;20197;-72
2023/12/06 09:46:59;;;;;;;10.60;1.50;;;;;;;18.46;54.55;100205.00;4987761;28;20182;-72
2023/12/06 09:49:24;;;;;;;5.83;1.43;;;;;;;18.47;54.57;100203.00;4972085;28;20444;-72
2023/12/06 09:51:50;;;;;;;3.33;1.23;;;;;;;18.48;54.38;100199.75;4967732;28;21251;-72
2023/12/06 09:54:16;;;;;;;5.60;1.70;;;;;;;18.46;54.38;100205.00;4971362;28;20641;-72
2023/12/06 09:56:42;;;;;;;2.80;1.20;;;;;;;18.51;54.28;100203.88;4970484;28;20502;-72
2023/12/06 09:59:07;;;;;;;5.27;1.70;;;;;;;18.47;54.09;100208.72;4987943;28;20173;-72
2023/12/06 10:01:32;;;;;;;4.40;1.57;;;;;;;18.45;54.59;100211.94;4983283;28;20205;-72
2023/12/06 10:03:58;;;;;;;4.40;1.70;;;;;;;18.45;54.23;100209.09;4980810;28;20201;-72
2023/12/06 10:06:23;;;;;;;4.77;1.80;;;;;;;18.46;54.60;100213.59;5019510;28;20562;-72
2023/12/06 10:08:53;;;;;;;3.43;1.50;;;;;;;18.46;54.11;100213.59;4975527;28;20551;-72
2023/12/06 10:11:22;;;;;;;3.63;1.30;;;;;;;18.44;54.16;100221.72;4986750;28;20190;-72
2023/12/06 10:13:47;;;;;;;10.60;1.90;;;;;;;18.47;54.29;100223.81;4986737;28;21174;-72
2023/12/06 10:16:13;;;;;;;5.73;1.50;;;;;;;18.45;54.17;100220.53;4987654;28;20465;-72
2023/12/06 10:18:40;;;;;;;8.73;1.60;;;;;;;18.45;54.15;100217.66;4966591;28;20202;-72
2023/12/06 10:21:05;;;;;;;4.63;1.80;;;;;;;18.46;54.59;100219.31;4968033;28;20187;-72
2023/12/06 10:23:31;;;;;;;2.27;1.10;;;;;;;18.43;54.23;100219.25;4975653;28;20444;-72
2023/12/06 10:25:56;;;;;;;4.17;1.57;;;;;;;18.44;54.71;100224.59;4971383;28;20184;-72
2023/12/06 10:28:22;;;;;;;7.40;1.87;;;;;;;18.44;54.27;100221.72;4986720;28;20284;-72
2023/12/06 10:30:57;;;;;;;6.37;1.60;;;;;;;18.47;53.98;100228.72;4987402;28;20597;-72
2023/12/06 10:33:23;;;;;;;5.27;1.50;;;;;;;18.43;54.18;100220.09;4988007;28;20656;-72
2023/12/06 10:35:48;;;;;;;3.23;1.70;;;;;;;18.44;54.20;100227.44;4958653;28;20478;-72
2023/12/06 10:38:14;;;;;;;3.73;1.20;;;;;;;18.48;54.04;100225.50;4972896;28;20200;-72
2023/12/06 10:40:40;;;;;;;6.47;1.50;;;;;;;18.44;54.45;100232.34;4959162;28;20194;-72
2023/12/06 10:43:07;;;;;;;3.03;1.60;;;;;;;18.44;54.10;100221.72;4990410;28;20169;-72
2023/12/06 10:45:32;;;;;;;4.13;1.60;;;;;;;18.44;54.83;100232.34;4974343;28;20185;-72
2023/12/06 10:47:58;;;;;;;2.90;1.30;;;;;;;18.46;54.08;100222.16;4966289;28;20446;-72
2023/12/06 10:50:23;;;;;;;4.43;1.47;;;;;;;18.46;54.04;100224.22;5009473;28;20581;-72
2023/12/06 10:52:49;;;;;;;2.80;1.23;;;;;;;18.44;54.02;100233.16;4992799;28;20181;-71
2023/12/06 10:55:15;;;;;;;4.40;1.33;;;;;;;18.45;54.16;100234.81;4989585;28;20203;-72
2023/12/06 10:57:41;;;;;;;2.53;1.30;;;;;;;18.42;54.04;100227.00;4989189;28;20223;-72
2023/12/06 11:00:07;;;;;;;4.43;1.70;;;;;;;18.44;53.70;100226.63;4972695;28;20420;-72
2023/12/06 11:02:33;;;;;;;2.53;1.43;;;;;;;18.44;54.04;100232.34;4970991;28;20189;-71
2023/12/06 11:05:05;;;;;;;4.80;1.53;;;;;;;18.46;54.62;100236.47;4973879;28;20477;-72
2023/12/06 11:07:56;;;;;;;5.23;1.37;;;;;;;18.41;54.49;100235.97;4977342;28;20493;-72
2023/12/06 11:10:37;;;;;;;4.37;1.40;;;;;;;18.43;54.15;100248.69;5026254;28;21225;-71
2023/12/06 11:13:08;;;;;;;3.93;1.70;;;;;;;18.40;54.40;100237.16;5018833;28;20431;-72
2023/12/06 11:15:43;;;;;;;2.17;1.03;;;;;;;18.39;54.81;100235.50;4990395;28;20551;-71
2023/12/06 11:18:18;;;;;;;3.20;1.43;;;;;;;18.43;54.35;100239.25;4994514;28;20430;-72
2023/12/06 11:20:43;;;;;;;4.77;1.40;;;;;;;18.44;53.92;100236.03;5009998;28;20426;-72
2023/12/06 11:23:12;;;;;;;2.20;1.20;;;;;;;18.40;54.24;100228.59;4977584;28;20431;-72